Site-Specific Table for Stillwater
(NFDRS Fuel Model T - Tallgrass with brush)
DATE TIME TAIR RELH WSPD RAIN_24H BI SC ERC IC 1-HR 10-HR 100-HR 1000-HR HERB WOODY KBDI
Mon Sep 25, 2017 5:00 am CDT 74°F 73% 6 mph 0.00 in. 5 3 1 3% 12% 14% 12% 8% 170% 145% 425
Mon Sep 25, 2017 4:00 am CDT 74°F 72% 4 mph 0.00 in. 4 1 1 2% 11% 14% 11% 8% 170% 145% 425
Mon Sep 25, 2017 3:00 am CDT 75°F 70% 6 mph 0.00 in. 6 3 1 3% 11% 13% 11% 8% 170% 145% 425
Mon Sep 25, 2017 2:00 am CDT 75°F 70% 5 mph 0.00 in. 5 2 2 3% 11% 13% 11% 8% 170% 145% 425
Mon Sep 25, 2017 1:00 am CDT 77°F 67% 4 mph 0.00 in. 5 2 2 3% 10% 12% 11% 8% 170% 145% 425
Mon Sep 25, 2017 12:00 am CDT 78°F 66% 6 mph 0.00 in. 7 3 2 4% 10% 12% 11% 8% 170% 145% 425
Sun Sep 24, 2017 11:00 pm CDT 78°F 66% 4 mph 0.00 in. 6 2 2 3% 10% 11% 11% 8% 170% 145% 425
Sun Sep 24, 2017 10:00 pm CDT 78°F 66% 5 mph 0.00 in. 7 2 2 4% 9% 11% 11% 8% 170% 145% 425
Sun Sep 24, 2017 9:00 pm CDT 79°F 63% 5 mph 0.00 in. 7 2 3 5% 8% 11% 11% 8% 170% 145% 425
Sun Sep 24, 2017 8:00 pm CDT 81°F 57% 4 mph 0.00 in. 7 2 3 5% 7% 10% 11% 8% 170% 145% 425
Sun Sep 24, 2017 7:00 pm CDT 85°F 51% 7 mph 0.00 in. 10 4 4 9% 7% 10% 11% 8% 170% 145% 425
Sun Sep 24, 2017 6:00 pm CDT 87°F 45% 6 mph 0.00 in. 10 3 4 9% 6% 10% 11% 8% 170% 145% 425
Sun Sep 24, 2017 5:00 pm CDT 88°F 45% 7 mph 0.00 in. 11 4 4 10% 6% 10% 11% 8% 170% 145% 425
Sun Sep 24, 2017 4:00 pm CDT 88°F 46% 11 mph 0.00 in. 13 7 4 12% 6% 11% 11% 8% 170% 145% 418
Sun Sep 24, 2017 3:00 pm CDT 88°F 46% 11 mph 0.00 in. 13 7 3 12% 7% 12% 11% 8% 170% 145% 418
Sun Sep 24, 2017 2:00 pm CDT 87°F 48% 13 mph 0.00 in. 13 8 3 12% 7% 12% 11% 8% 170% 145% 418
Sun Sep 24, 2017 1:00 pm CDT 86°F 50% 10 mph 0.00 in. 11 6 3 10% 7% 13% 11% 8% 170% 145% 418
Sun Sep 24, 2017 12:00 pm CDT 86°F 55% 10 mph 0.00 in. 9 6 2 8% 9% 15% 12% 8% 170% 145% 418
Sun Sep 24, 2017 11:00 am CDT 82°F 65% 9 mph 0.00 in. 6 5 1 4% 11% 16% 12% 8% 170% 145% 418
Sun Sep 24, 2017 10:00 am CDT 80°F 70% 9 mph 0.00 in. 4 3 1 3% 12% 17% 12% 8% 170% 145% 418
DATE TIME TAIR RELH WSPD RAIN_24H BI SC ERC IC 1-HR 10-HR 100-HR 1000-HR HERB WOODY KBDI
Sun Sep 24, 2017 9:00 am CDT 74°F 79% 4 mph 0.00 in. 0 0 0 0% 15% 18% 12% 8% 170% 145% 418
Sun Sep 24, 2017 8:00 am CDT 70°F 86% 3 mph 0.00 in. 0 0 0 0% 17% 18% 12% 8% 170% 145% 418
Sun Sep 24, 2017 7:00 am CDT 70°F 88% 4 mph 0.00 in. 0 0 0 0% 17% 17% 12% 8% 170% 145% 418
Sun Sep 24, 2017 6:00 am CDT 70°F 87% 7 mph 0.00 in. 0 0 0 0% 16% 17% 12% 8% 170% 145% 418